createdAt,value
2022-08-29T05:01:28.366Z,98552.00
2022-08-29T06:41:21.968Z,98593.00
2022-08-29T06:46:59.861Z,98588.00
2022-08-29T06:52:11.011Z,98590.00
2022-08-29T06:57:23.788Z,98584.00
2022-08-29T07:02:39.913Z,98585.00
2022-08-29T07:07:45.740Z,98584.00
2022-08-29T07:12:48.751Z,98590.00
2022-08-29T07:17:53.536Z,98588.00
2022-08-29T07:22:59.647Z,98589.00
2022-08-29T07:28:03.073Z,98585.00
2022-08-29T07:33:08.559Z,98582.00
2022-08-29T07:38:11.763Z,98585.00
2022-08-29T07:43:19.694Z,98589.00
2022-08-29T07:48:25.156Z,98585.00
2022-08-29T07:53:28.438Z,98601.00
2022-08-29T07:58:32.096Z,98591.00
2022-08-29T08:03:46.249Z,98597.00
2022-08-29T08:08:52.626Z,98599.00
2022-08-29T08:13:57.690Z,98604.00
2022-08-29T08:19:01.623Z,98611.00
2022-08-29T08:24:04.990Z,98608.00
2022-08-29T08:29:08.883Z,98614.00
2022-08-29T08:34:55.347Z,98622.00
2022-08-29T08:40:13.258Z,98629.00
2022-08-29T08:45:23.258Z,98630.00
2022-08-29T08:51:04.828Z,98624.00
2022-08-29T08:56:37.939Z,98629.00
2022-08-29T09:02:16.712Z,98635.00
2022-08-29T09:07:54.277Z,98636.00
2022-08-29T09:13:25.593Z,98628.00
2022-08-29T09:18:52.543Z,98635.00
2022-08-29T09:24:01.801Z,98626.00
2022-08-29T09:29:10.164Z,98634.00
2022-08-29T09:34:45.184Z,98635.00
2022-08-29T09:40:01.755Z,98633.00
2022-08-29T09:45:27.063Z,98627.00
2022-08-29T09:50:30.047Z,98631.00
2022-08-29T09:55:56.510Z,98636.00
2022-08-29T10:01:24.827Z,98631.00
2022-08-29T10:06:44.152Z,98636.00
2022-08-29T10:12:05.574Z,98641.00
2022-08-29T10:17:48.626Z,98622.00
2022-08-29T10:23:39.491Z,98631.00
2022-08-29T10:28:54.961Z,98638.00
2022-08-29T10:34:06.290Z,98631.00
2022-08-29T10:39:16.205Z,98636.00
2022-08-29T10:45:17.035Z,98631.00
2022-08-29T10:50:44.586Z,98630.00
2022-08-29T10:56:18.073Z,98632.00
2022-08-29T11:02:03.196Z,98625.00
2022-08-29T11:07:23.083Z,98631.00
2022-08-29T11:12:52.190Z,98629.00
2022-08-29T11:18:24.736Z,98622.00
2022-08-29T11:23:39.804Z,98622.00
2022-08-29T11:29:21.641Z,98617.00
2022-08-29T11:34:46.483Z,98621.00
2022-08-29T11:40:10.336Z,98626.00
2022-08-29T11:45:21.662Z,98634.00
2022-08-29T11:50:35.016Z,98637.00
2022-08-29T11:55:46.750Z,98625.00
2022-08-29T12:00:58.598Z,98624.00
2022-08-29T12:06:29.818Z,98627.00
2022-08-29T12:12:03.048Z,98624.00
2022-08-29T12:18:00.521Z,98613.00
2022-08-29T12:23:00.421Z,98614.00
2022-08-29T12:28:18.622Z,98609.00
2022-08-29T12:33:39.795Z,98609.00
2022-08-29T12:39:01.774Z,98606.00
2022-08-29T12:44:10.690Z,98603.00
2022-08-29T12:49:20.849Z,98594.00
2022-08-29T12:54:34.408Z,98592.00
2022-08-29T12:59:44.072Z,98595.00
2022-08-29T13:04:51.823Z,98595.00
2022-08-29T13:10:01.634Z,98589.00
2022-08-29T13:15:22.626Z,98595.00
2022-08-29T13:20:47.914Z,98596.00
2022-08-29T13:26:14.551Z,98582.00
2022-08-29T13:31:25.879Z,98587.00
2022-08-29T13:36:45.700Z,98577.00
2022-08-29T13:42:18.642Z,98582.00
2022-08-29T13:47:31.571Z,98572.00
2022-08-29T13:52:40.940Z,98569.00
2022-08-29T13:57:50.501Z,98570.00
2022-08-29T14:03:00.661Z,98559.00
2022-08-29T14:08:05.001Z,98555.00
2022-08-29T14:13:08.032Z,98562.00
2022-08-29T14:18:12.040Z,98557.00
2022-08-29T14:23:15.030Z,98553.00
2022-08-29T14:28:18.410Z,98557.00
2022-08-29T14:33:23.702Z,98551.00
2022-08-29T14:38:26.688Z,98550.00
2022-08-29T14:43:29.648Z,98543.00
2022-08-29T14:48:32.547Z,98543.00
2022-08-29T14:53:42.678Z,98539.00
2022-08-29T14:58:57.307Z,98543.00
2022-08-29T15:04:08.057Z,98546.00
2022-08-29T15:09:11.772Z,98538.00
2022-08-29T15:14:15.268Z,98530.00
2022-08-29T15:24:41.904Z,98525.00
2022-08-29T15:29:44.938Z,98525.00
2022-08-29T15:34:48.410Z,98519.00
2022-08-29T15:39:54.765Z,98519.00
2022-08-29T15:45:08.008Z,98524.00
2022-08-29T15:50:11.554Z,98521.00
2022-08-29T15:55:15.014Z,98516.00
2022-08-29T16:00:21.555Z,98513.00
2022-08-29T16:05:42.683Z,98503.00
2022-08-29T16:10:58.973Z,98515.00
2022-08-29T16:16:14.163Z,98499.00
2022-08-29T16:21:28.626Z,98499.00
2022-08-29T16:26:48.852Z,98505.00
2022-08-29T16:31:58.884Z,98500.00
2022-08-29T16:37:10.507Z,98509.00
2022-08-29T16:42:25.569Z,98511.00
2022-08-29T16:47:36.207Z,98500.00
2022-08-29T16:52:44.500Z,98511.00
2022-08-29T16:58:08.684Z,98502.00
2022-08-29T17:03:22.244Z,98504.00
2022-08-29T17:08:28.230Z,98514.00
2022-08-29T17:13:31.688Z,98514.00
2022-08-29T17:18:38.262Z,98518.00
2022-08-29T17:23:43.060Z,98513.00
2022-08-29T17:28:47.381Z,98512.00
2022-08-29T17:33:50.819Z,98506.00
2022-08-29T17:38:53.843Z,98515.00
2022-08-29T17:43:57.292Z,98516.00
2022-08-29T17:49:04.216Z,98512.00
2022-08-29T17:54:14.987Z,98525.00
2022-08-29T17:59:20.033Z,98525.00
2022-08-29T18:04:24.543Z,98525.00
2022-08-29T18:09:29.607Z,98527.00
2022-08-29T18:14:32.919Z,98538.00
2022-08-29T18:19:36.851Z,98535.00
2022-08-29T18:24:40.117Z,98531.00
2022-08-29T18:29:43.231Z,98534.00
2022-08-29T18:34:46.298Z,98538.00
2022-08-29T18:39:49.397Z,98541.00
2022-08-29T18:44:52.598Z,98548.00
2022-08-29T18:50:14.324Z,98550.00
2022-08-29T18:55:18.783Z,98552.00
2022-08-29T19:00:25.560Z,98561.00
2022-08-29T19:05:38.358Z,98557.00
2022-08-29T19:10:44.740Z,98565.00
2022-08-29T19:16:08.682Z,98570.00
2022-08-29T19:21:27.511Z,98571.00
2022-08-29T19:26:37.995Z,98572.00
2022-08-29T19:31:53.608Z,98567.00
2022-08-29T19:36:59.330Z,98573.00
2022-08-29T19:42:07.563Z,98568.00
2022-08-29T19:47:20.351Z,98565.00
2022-08-29T19:52:24.182Z,98573.00
2022-08-29T19:57:34.771Z,98568.00
2022-08-29T20:02:43.324Z,98576.00
2022-08-29T20:07:50.077Z,98572.00
2022-08-29T20:12:56.060Z,98570.00
2022-08-29T20:18:00.301Z,98579.00
2022-08-29T20:23:07.420Z,98571.00
2022-08-29T20:28:15.376Z,98582.00
2022-08-29T20:33:19.211Z,98579.00
2022-08-29T20:38:22.205Z,98582.00
2022-08-29T20:43:25.224Z,98579.00
2022-08-29T20:48:31.302Z,98579.00
2022-08-29T20:53:35.304Z,98579.00
2022-08-29T20:58:38.445Z,98584.00
2022-08-29T21:04:06.460Z,98584.00
2022-08-29T21:09:11.531Z,98588.00
2022-08-29T21:14:14.563Z,98589.00
2022-08-29T21:19:18.946Z,98596.00
2022-08-29T21:24:22.011Z,98593.00
2022-08-29T21:29:27.009Z,98601.00
2022-08-29T21:34:30.285Z,98595.00
2022-08-29T21:39:33.227Z,98602.00
2022-08-29T21:44:36.478Z,98581.00
2022-08-29T21:49:39.474Z,98589.00
2022-08-29T21:54:42.444Z,98591.00
2022-08-29T21:59:48.551Z,98588.00
2022-08-29T22:04:59.725Z,98584.00
2022-08-29T22:10:06.221Z,98579.00
2022-08-29T22:15:28.049Z,98588.00
2022-08-29T22:20:31.330Z,98581.00
2022-08-29T22:25:35.065Z,98578.00
2022-08-29T22:30:39.412Z,98577.00
2022-08-29T22:35:45.330Z,98576.00
2022-08-29T22:41:02.154Z,98576.00
2022-08-29T22:46:24.940Z,98581.00
2022-08-29T22:51:39.667Z,98574.00
2022-08-29T22:56:47.150Z,98583.00
2022-08-29T23:02:00.692Z,98578.00
2022-08-29T23:07:18.021Z,98578.00
2022-08-29T23:12:27.734Z,98586.00
2022-08-29T23:17:38.053Z,98585.00
2022-08-29T23:22:43.166Z,98589.00
2022-08-29T23:27:46.391Z,98583.00
2022-08-29T23:32:49.372Z,98582.00
2022-08-29T23:37:52.364Z,98571.00
2022-08-29T23:42:56.233Z,98578.00
2022-08-29T23:47:59.763Z,98575.00
2022-08-29T23:53:02.871Z,98570.00
2022-08-29T23:58:05.812Z,98564.00
